West Monroe, Louisiana
Current Conditions -  °F | °C
As of 11:53 AM on Sunday 21 Dec 2014 (Local Time) from KMLU Reporting Station
Clear Clear  
Wind Chill: 56°   Ceiling: Unl
Heat Index: 56°   Visibility: 10mi
Dew Point: 42°   Wind: 3mph
Humidity: 60%   Direction: 110°ESE
Pressure: 30.11"   Gusts: NA
Location:  32.5°N, 92.13°W
Report Text: KMLU 211753Z 11003KT 10SM CLR 13/06 A3011 RMK AO2 PRESFR SLP195 T01330056 10133 20006 58026
Loading
Personal Weather Stations






























Interactive Weather Map New forecast layout! Learn more

10-Day Weather Forecast

Advertisements
Track Severe Weather on mobile